Altrincham, United Kingdom
Current Conditions -  °F | °C
As of 9:20 AM on Monday 24 Nov 2014 (Local Time) from EGCC Reporting Station
Scattered Clouds Scattered Clouds  
Wind Chill: 33°   Ceiling: Unl
Heat Index: 37°   Visibility: 6mi
Dew Point: 37°   Wind: 6mph
Humidity: 100%   Direction: 180°S
Pressure: 30.3"   Gusts: NA
Location:  53.39°N, 2.35°W
Report Text: EGCC 240920Z 18005KT 130V200 9999 FEW026 SCT033 03/03 Q1026 NOSIG
Loading
Personal Weather Stations






























Interactive Weather Map New forecast layout! Learn more

10-Day Weather Forecast

Advertisements
Track Severe Weather on mobile